Time;durP1;ratioP1;P1;durP2;ratioP2;P2;SDS_P1;SDS_P2;PMS_P1;PMS_P2;Temp;Humidity;BMP_temperature;BMP_pressure;BME280_temperature;BME280_humidity;BME280_pressure;Samples;Min_cycle;Max_cycle;Signal;HPM_P1;HPM_P2
2021/11/28 00:01:13;;;;;;;2.22;1.48;;;21.60;32.20;;;;;;5034445;28;20064;-48
2021/11/28 00:03:39;;;;;;;2.42;1.40;;;21.60;32.20;;;;;;5017409;28;20044;-50
2021/11/28 00:06:12;;;;;;;1.60;1.20;;;21.60;32.20;;;;;;5016444;28;20029;-48
2021/11/28 00:13:52;;;;;;;2.50;1.58;;;21.60;32.30;;;;;;5035325;28;20034;-52
2021/11/28 00:16:20;;;;;;;2.45;1.60;;;21.60;32.30;;;;;;5031597;28;20029;-49
2021/11/28 00:18:46;;;;;;;2.40;1.45;;;21.60;32.40;;;;;;5016217;28;20030;-47
2021/11/28 00:21:13;;;;;;;1.98;1.38;;;21.60;32.40;;;;;;5030865;28;20105;-53
2021/11/28 00:23:40;;;;;;;1.80;1.30;;;21.60;32.40;;;;;;5033901;28;20464;-51
2021/11/28 00:26:06;;;;;;;1.50;1.40;;;21.50;32.30;;;;;;5033695;28;20380;-49
2021/11/28 00:28:32;;;;;;;1.77;1.25;;;21.50;32.30;;;;;;5034198;28;20025;-51
2021/11/28 00:30:58;;;;;;;2.65;1.20;;;21.50;32.30;;;;;;5033569;28;20037;-48
2021/11/28 00:33:24;;;;;;;1.80;1.17;;;21.50;32.30;;;;;;5033984;28;20057;-48
2021/11/28 00:35:49;;;;;;;1.90;1.30;;;21.50;32.30;;;;;;5017439;28;20026;-51
2021/11/28 00:38:15;;;;;;;2.05;1.20;;;21.50;32.30;;;;;;5023624;28;20044;-52
2021/11/28 00:40:41;;;;;;;1.55;1.10;;;21.50;32.30;;;;;;5033140;28;20025;-54
2021/11/28 00:43:07;;;;;;;2.05;1.13;;;21.50;32.20;;;;;;5030776;28;20103;-51
2021/11/28 00:45:33;;;;;;;1.50;0.98;;;21.50;32.20;;;;;;5014998;28;20109;-50
2021/11/28 00:48:00;;;;;;;1.65;1.10;;;21.50;32.20;;;;;;5018018;28;20099;-48
2021/11/28 00:50:39;;;;;;;1.30;0.95;;;21.50;32.20;;;;;;5021287;28;20042;-49
2021/11/28 00:53:06;;;;;;;1.27;0.90;;;21.50;32.20;;;;;;5015193;28;20053;-50
2021/11/28 00:55:32;;;;;;;3.65;1.20;;;21.50;32.20;;;;;;5022000;28;20053;-50
2021/11/28 00:57:58;;;;;;;2.25;1.02;;;21.50;32.20;;;;;;5032837;28;20052;-52
2021/11/28 01:00:24;;;;;;;2.38;0.95;;;21.40;32.10;;;;;;5017176;28;20041;-51
2021/11/28 01:02:50;;;;;;;1.95;1.25;;;21.40;32.10;;;;;;5015257;28;20065;-50
2021/11/28 01:05:16;;;;;;;1.77;1.15;;;21.40;32.10;;;;;;5015036;28;20515;-49
2021/11/28 01:07:41;;;;;;;1.95;1.20;;;21.50;32.20;;;;;;5014872;28;20045;-51
2021/11/28 01:10:09;;;;;;;2.28;1.30;;;21.40;32.10;;;;;;5015267;28;20076;-50
2021/11/28 01:12:35;;;;;;;2.28;1.10;;;21.40;32.10;;;;;;5016133;28;20065;-50
2021/11/28 01:15:02;;;;;;;1.98;1.20;;;21.40;32.10;;;;;;5032731;28;20037;-50
2021/11/28 01:17:30;;;;;;;1.63;0.80;;;21.40;32.10;;;;;;5033131;28;20021;-51
2021/11/28 01:19:56;;;;;;;5.30;1.50;;;21.40;32.10;;;;;;5018991;28;20060;-49
2021/11/28 01:22:21;;;;;;;1.75;1.20;;;21.40;32.10;;;;;;5038531;28;20433;-49
2021/11/28 01:24:50;;;;;;;1.95;1.17;;;21.40;32.10;;;;;;5036763;28;20095;-52
2021/11/28 01:27:16;;;;;;;2.08;1.20;;;21.40;32.10;;;;;;5038607;28;20045;-51
2021/11/28 01:29:43;;;;;;;2.38;1.20;;;21.40;32.10;;;;;;5034829;28;20436;-49
2021/11/28 01:32:12;;;;;;;1.60;1.10;;;21.40;32.10;;;;;;5022966;28;20042;-49
2021/11/28 01:34:39;;;;;;;2.22;1.20;;;21.40;32.10;;;;;;5036309;28;20107;-48
2021/11/28 01:37:05;;;;;;;2.13;1.20;;;21.40;32.10;;;;;;5037308;28;20077;-54
2021/11/28 01:39:33;;;;;;;2.67;1.20;;;21.40;32.10;;;;;;5030617;28;20018;-52
2021/11/28 01:41:59;;;;;;;2.45;1.23;;;21.40;32.10;;;;;;5018829;28;20121;-49
2021/11/28 01:44:25;;;;;;;1.45;1.08;;;21.40;32.10;;;;;;5021787;28;20037;-48
2021/11/28 01:46:51;;;;;;;2.05;1.38;;;21.40;32.10;;;;;;5017232;28;20129;-52
2021/11/28 01:49:20;;;;;;;2.17;1.30;;;21.40;32.10;;;;;;5018006;28;20166;-50
2021/11/28 01:51:48;;;;;;;1.80;0.88;;;21.30;32.00;;;;;;5017175;28;20037;-50
2021/11/28 01:54:14;;;;;;;2.28;1.17;;;21.30;32.00;;;;;;5023538;28;20041;-50
2021/11/28 01:56:46;;;;;;;1.60;1.00;;;21.30;32.00;;;;;;5036987;28;20456;-52
2021/11/28 01:59:13;;;;;;;2.20;1.20;;;21.30;32.00;;;;;;5030138;28;20032;-49
2021/11/28 02:01:45;;;;;;;2.13;1.13;;;21.30;32.00;;;;;;5036667;28;20040;-51
2021/11/28 02:04:14;;;;;;;2.53;1.02;;;21.30;32.00;;;;;;5031313;28;20069;-50
2021/11/28 02:06:43;;;;;;;2.03;1.15;;;21.30;32.10;;;;;;5018366;28;20354;-52
2021/11/28 02:09:09;;;;;;;2.15;1.17;;;21.30;32.10;;;;;;5018937;28;20357;-54
2021/11/28 02:11:35;;;;;;;1.80;1.02;;;21.30;32.10;;;;;;5016933;28;20038;-51
2021/11/28 02:14:02;;;;;;;1.90;1.02;;;21.30;32.10;;;;;;5030230;28;20099;-56
2021/11/28 02:16:31;;;;;;;1.85;0.98;;;21.30;32.10;;;;;;5036291;28;20034;-53
2021/11/28 02:18:56;;;;;;;3.08;1.05;;;21.30;32.10;;;;;;5030307;28;20099;-53
2021/11/28 02:21:23;;;;;;;1.73;1.10;;;21.30;32.10;;;;;;5036231;28;20033;-51
2021/11/28 02:23:49;;;;;;;2.28;1.10;;;21.30;32.10;;;;;;5028924;28;20079;-52
2021/11/28 02:26:16;;;;;;;1.50;1.23;;;21.30;32.20;;;;;;5036118;28;20372;-53
2021/11/28 02:28:45;;;;;;;2.05;1.25;;;21.30;32.20;;;;;;5031577;28;20091;-51
2021/11/28 02:31:12;;;;;;;1.48;1.25;;;21.20;32.10;;;;;;5034544;28;20033;-53
2021/11/28 02:33:39;;;;;;;1.77;1.20;;;21.20;32.20;;;;;;5035887;28;20371;-55
2021/11/28 02:36:05;;;;;;;2.42;1.42;;;21.20;32.20;;;;;;5035280;28;20038;-53
2021/11/28 02:38:31;;;;;;;2.05;1.48;;;21.20;32.20;;;;;;5035435;28;20087;-55
2021/11/28 02:41:00;;;;;;;2.28;1.20;;;21.20;32.20;;;;;;5035457;28;20060;-54
2021/11/28 02:43:29;;;;;;;2.17;1.40;;;21.20;32.20;;;;;;5033782;28;20033;-56
2021/11/28 02:45:55;;;;;;;1.80;1.30;;;21.20;32.20;;;;;;5026796;28;20041;-49
2021/11/28 02:48:21;;;;;;;1.95;1.48;;;21.20;32.30;;;;;;5024540;28;20029;-47
2021/11/28 02:50:48;;;;;;;2.92;1.55;;;21.20;32.30;;;;;;5034860;28;20436;-52
2021/11/28 02:53:15;;;;;;;1.80;1.25;;;21.20;32.40;;;;;;5034130;28;20088;-53
2021/11/28 02:55:45;;;;;;;1.80;1.23;;;21.20;32.40;;;;;;5035148;28;20049;-52
2021/11/28 02:58:13;;;;;;;2.33;1.58;;;21.20;32.40;;;;;;5033920;28;20044;-50
2021/11/28 03:00:47;;;;;;;1.27;1.15;;;21.20;32.40;;;;;;5034540;28;20042;-51
2021/11/28 03:03:13;;;;;;;1.50;1.10;;;21.20;32.40;;;;;;5030092;28;20072;-48
2021/11/28 03:05:39;;;;;;;2.83;1.50;;;21.20;32.40;;;;;;5035984;28;20057;-52
2021/11/28 03:08:05;;;;;;;2.10;1.40;;;21.20;32.40;;;;;;5033231;28;20369;-52
2021/11/28 03:10:34;;;;;;;1.33;1.23;;;21.20;32.40;;;;;;5035690;28;20033;-52
2021/11/28 03:13:03;;;;;;;1.75;1.30;;;21.20;32.40;;;;;;5029170;28;20030;-50
2021/11/28 03:15:29;;;;;;;2.13;1.30;;;21.20;32.40;;;;;;5034816;28;20041;-53
2021/11/28 03:17:59;;;;;;;1.92;1.50;;;21.20;32.50;;;;;;5016013;28;20030;-53
2021/11/28 03:20:26;;;;;;;2.53;1.45;;;21.10;32.40;;;;;;5016927;28;20483;-50
2021/11/28 03:22:52;;;;;;;1.60;1.40;;;21.10;32.40;;;;;;5008883;28;20034;-53
2021/11/28 03:25:20;;;;;;;1.52;1.15;;;21.10;32.50;;;;;;5034830;28;20076;-52
2021/11/28 03:27:46;;;;;;;2.08;1.48;;;21.10;32.40;;;;;;5034371;28;20037;-48
2021/11/28 03:30:16;;;;;;;2.15;1.58;;;21.20;32.50;;;;;;5018458;28;20065;-53
2021/11/28 03:33:02;;;;;;;2.28;1.60;;;21.20;32.50;;;;;;5015597;28;20358;-52
2021/11/28 03:36:00;;;;;;;2.65;1.52;;;21.10;32.50;;;;;;4997680;28;20042;-51
2021/11/28 03:38:26;;;;;;;2.58;1.83;;;21.10;32.50;;;;;;5020408;28;20468;-49
2021/11/28 03:40:52;;;;;;;2.05;1.50;;;21.10;32.50;;;;;;5012200;28;20030;-53
2021/11/28 03:43:18;;;;;;;2.72;1.70;;;21.10;32.50;;;;;;5016160;28;20369;-51
2021/11/28 03:45:44;;;;;;;1.83;1.63;;;21.10;32.50;;;;;;5025831;28;20345;-50
2021/11/28 03:48:10;;;;;;;2.25;1.55;;;21.10;32.50;;;;;;5033166;28;20030;-52
2021/11/28 03:50:42;;;;;;;2.00;1.70;;;21.10;32.50;;;;;;5018992;28;20025;-51
2021/11/28 03:53:10;;;;;;;1.98;1.60;;;21.10;32.50;;;;;;5016858;28;20330;-54
2021/11/28 03:55:36;;;;;;;2.78;1.92;;;21.10;32.50;;;;;;5014947;28;20045;-50
2021/11/28 03:58:04;;;;;;;2.85;1.95;;;21.10;32.50;;;;;;5031801;28;20033;-53
2021/11/28 04:00:31;;;;;;;2.50;1.67;;;21.10;32.50;;;;;;5033634;28;20131;-53
2021/11/28 04:03:07;;;;;;;1.98;1.67;;;21.00;32.50;;;;;;5031932;28;20040;-47
2021/11/28 04:05:33;;;;;;;1.77;1.67;;;21.00;32.50;;;;;;5031733;28;20061;-49
2021/11/28 04:07:59;;;;;;;1.98;1.55;;;21.00;32.50;;;;;;5032387;28;20459;-53
2021/11/28 04:10:25;;;;;;;1.80;1.70;;;21.00;32.50;;;;;;5032459;28;20048;-51
2021/11/28 04:12:51;;;;;;;2.83;1.88;;;21.00;32.50;;;;;;5035059;28;20025;-50
2021/11/28 04:15:17;;;;;;;2.15;1.63;;;21.00;32.50;;;;;;5014941;28;20042;-49
2021/11/28 04:17:53;;;;;;;1.67;1.48;;;21.00;32.50;;;;;;5027175;28;20037;-49
2021/11/28 04:20:20;;;;;;;1.90;1.55;;;21.00;32.50;;;;;;5033727;28;20091;-48
2021/11/28 04:22:46;;;;;;;2.67;1.83;;;21.00;32.50;;;;;;5022321;28;20034;-51
2021/11/28 04:25:14;;;;;;;2.05;1.63;;;21.00;32.50;;;;;;5014569;28;20453;-48
2021/11/28 04:27:41;;;;;;;2.20;1.65;;;21.00;32.50;;;;;;5025930;28;20044;-52
2021/11/28 04:30:09;;;;;;;2.42;1.67;;;21.00;32.50;;;;;;5034659;28;20026;-52
2021/11/28 04:32:35;;;;;;;1.73;1.45;;;20.90;32.50;;;;;;5031888;28;20377;-51
2021/11/28 04:35:01;;;;;;;1.92;1.42;;;21.00;32.50;;;;;;5024790;28;20042;-49
2021/11/28 04:37:29;;;;;;;2.20;1.50;;;21.00;32.50;;;;;;5014256;28;20026;-50
2021/11/28 04:39:55;;;;;;;2.72;2.00;;;21.00;32.50;;;;;;5014788;28;20052;-51
2021/11/28 04:42:21;;;;;;;1.75;1.65;;;21.00;33.20;;;;;;5014220;28;20040;-50
2021/11/28 04:44:50;;;;;;;1.77;1.58;;;21.00;32.50;;;;;;5026976;28;20136;-52
2021/11/28 04:47:18;;;;;;;1.90;1.58;;;21.00;32.60;;;;;;5014344;28;20445;-48
2021/11/28 04:49:53;;;;;;;2.83;2.00;;;21.00;32.50;;;;;;5013068;28;20044;-51
2021/11/28 04:52:19;;;;;;;2.20;1.80;;;21.00;32.50;;;;;;5018894;28;20030;-51
2021/11/28 04:54:45;;;;;;;2.00;1.77;;;21.00;32.60;;;;;;5013305;28;20046;-49
2021/11/28 04:57:15;;;;;;;2.05;1.73;;;20.90;32.50;;;;;;5015072;28;20025;-50
2021/11/28 04:59:41;;;;;;;1.88;1.67;;;20.90;32.50;;;;;;4997680;28;20188;-48
2021/11/28 05:02:07;;;;;;;1.75;1.40;;;20.90;32.50;;;;;;5018296;28;20040;-48
2021/11/28 05:04:32;;;;;;;1.92;1.30;;;20.90;32.50;;;;;;5033657;28;20030;-52
2021/11/28 05:07:17;;;;;;;1.63;1.50;;;20.90;32.40;;;;;;5027662;28;20080;-50
2021/11/28 05:09:53;;;;;;;1.73;1.60;;;20.90;32.40;;;;;;5013785;28;20022;-52
2021/11/28 05:12:20;;;;;;;1.73;1.33;;;20.90;32.40;;;;;;5015135;28;20028;-50
2021/11/28 05:14:46;;;;;;;1.73;1.30;;;20.90;32.40;;;;;;5013937;28;20042;-51
2021/11/28 05:17:12;;;;;;;1.80;1.25;;;20.90;32.40;;;;;;5014663;28;20026;-50
2021/11/28 05:19:46;;;;;;;2.03;1.65;;;20.90;32.30;;;;;;5013874;28;20152;-52
2021/11/28 05:22:15;;;;;;;1.60;1.33;;;20.90;32.30;;;;;;5022357;28;20349;-49
2021/11/28 05:24:44;;;;;;;1.70;1.50;;;20.90;32.30;;;;;;5033225;28;20034;-52
2021/11/28 05:27:10;;;;;;;2.03;1.45;;;20.90;32.30;;;;;;5031102;28;20376;-49
2021/11/28 05:29:36;;;;;;;2.17;1.52;;;20.90;32.20;;;;;;5033157;28;20029;-50
2021/11/28 05:32:03;;;;;;;1.55;1.42;;;20.90;32.20;;;;;;5029964;28;20448;-51
2021/11/28 05:34:47;;;;;;;2.10;1.40;;;20.90;32.20;;;;;;5031040;28;20048;-49
2021/11/28 05:37:28;;;;;;;1.60;1.50;;;20.80;32.20;;;;;;5018725;28;20039;-51
2021/11/28 05:40:04;;;;;;;1.98;1.48;;;20.80;32.20;;;;;;5033175;28;20033;-50
2021/11/28 05:42:31;;;;;;;2.20;1.58;;;20.80;32.20;;;;;;5015638;28;20037;-50
2021/11/28 05:45:01;;;;;;;2.13;1.60;;;20.80;32.20;;;;;;5014980;28;20391;-53
2021/11/28 05:47:46;;;;;;;2.03;1.83;;;20.80;32.20;;;;;;5018403;28;20040;-54
2021/11/28 05:50:30;;;;;;;2.05;1.67;;;20.80;32.20;;;;;;5031796;28;20025;-53
2021/11/28 05:52:57;;;;;;;1.70;1.60;;;20.80;32.20;;;;;;5020933;28;20361;-54
2021/11/28 05:55:24;;;;;;;1.92;1.65;;;20.80;32.20;;;;;;5018775;28;20107;-52
2021/11/28 05:57:53;;;;;;;1.92;1.80;;;20.80;32.20;;;;;;5033172;28;20036;-48
2021/11/28 06:00:22;;;;;;;1.90;1.48;;;20.80;32.20;;;;;;5031808;28;20380;-48
2021/11/28 06:02:52;;;;;;;2.13;1.92;;;20.80;32.20;;;;;;5034219;28;20113;-48
2021/11/28 06:05:50;;;;;;;1.65;1.55;;;20.80;32.20;;;;;;5023201;28;20038;-49
2021/11/28 06:08:35;;;;;;;1.90;1.70;;;20.80;32.20;;;;;;5016494;28;20042;-53
2021/11/28 06:11:05;;;;;;;1.95;1.70;;;20.80;32.20;;;;;;5019604;28;20040;-55
2021/11/28 06:13:31;;;;;;;1.88;1.58;;;20.80;32.20;;;;;;5016261;28;20121;-50
2021/11/28 06:16:16;;;;;;;2.20;1.80;;;20.80;32.20;;;;;;5022139;28;20368;-50
2021/11/28 06:19:01;;;;;;;1.92;1.75;;;20.80;32.20;;;;;;5035825;28;20048;-53
2021/11/28 06:21:42;;;;;;;1.98;1.77;;;20.80;32.20;;;;;;5031798;28;20041;-56
2021/11/28 06:24:17;;;;;;;2.08;1.70;;;20.80;32.20;;;;;;5027861;28;20120;-50
2021/11/28 06:26:48;;;;;;;3.03;2.10;;;20.70;32.10;;;;;;5036017;28;20037;-52
2021/11/28 06:29:14;;;;;;;2.33;1.70;;;20.70;32.20;;;;;;5018719;28;20022;-50
2021/11/28 06:31:41;;;;;;;2.08;1.88;;;20.80;32.80;;;;;;5017159;28;20053;-51
2021/11/28 06:34:15;;;;;;;2.10;1.90;;;20.80;32.20;;;;;;5017719;28;20046;-49
2021/11/28 06:36:59;;;;;;;2.53;2.10;;;20.70;32.10;;;;;;5030611;28;20491;-50
2021/11/28 06:39:58;;;;;;;1.90;1.70;;;20.70;32.10;;;;;;5012913;28;20045;-55
2021/11/28 06:42:38;;;;;;;1.88;1.77;;;20.70;32.00;;;;;;5035050;28;20365;-51
2021/11/28 06:45:06;;;;;;;2.10;1.90;;;20.70;32.00;;;;;;5021147;28;20037;-50
2021/11/28 06:47:33;;;;;;;2.83;2.00;;;20.70;32.00;;;;;;5019217;28;20021;-49
2021/11/28 06:49:59;;;;;;;1.95;1.80;;;20.70;32.00;;;;;;5034956;28;20043;-50
2021/11/28 06:52:57;;;;;;;2.15;1.95;;;20.70;32.00;;;;;;5010640;28;20033;-51
2021/11/28 06:55:23;;;;;;;2.15;1.95;;;20.70;32.00;;;;;;5037046;28;20072;-53
2021/11/28 06:57:55;;;;;;;2.03;1.80;;;20.70;32.00;;;;;;5031024;28;20036;-50
2021/11/28 07:00:22;;;;;;;2.60;2.40;;;20.70;32.00;;;;;;5035457;28;20057;-51
2021/11/28 07:02:48;;;;;;;4.38;2.90;;;20.70;32.00;;;;;;5018971;28;20026;-50
2021/11/28 07:05:32;;;;;;;2.92;2.63;;;20.70;32.00;;;;;;5022579;28;20067;-51
2021/11/28 07:07:59;;;;;;;2.50;2.15;;;20.70;32.10;;;;;;5019006;28;20034;-49
2021/11/28 07:10:25;;;;;;;2.95;2.17;;;20.70;32.20;;;;;;5021152;28;20040;-52
2021/11/28 07:12:56;;;;;;;2.50;2.30;;;20.60;32.10;;;;;;5035431;28;20453;-49
2021/11/28 07:15:22;;;;;;;2.50;2.20;;;20.60;32.10;;;;;;5026383;28;20029;-53
2021/11/28 07:17:50;;;;;;;2.67;2.30;;;20.70;32.20;;;;;;5034958;28;20037;-48
2021/11/28 07:20:41;;;;;;;2.38;2.17;;;20.60;32.10;;;;;;5027526;28;20037;-49
2021/11/28 07:23:07;;;;;;;2.30;2.08;;;20.60;32.10;;;;;;5019664;28;20057;-54
2021/11/28 07:25:34;;;;;;;2.22;2.03;;;20.60;32.10;;;;;;5021886;28;20516;-51
2021/11/28 07:28:17;;;;;;;3.10;2.13;;;20.60;32.00;;;;;;5027935;28;20090;-51
2021/11/28 07:30:49;;;;;;;2.58;1.85;;;20.60;32.10;;;;;;5055512;28;20025;-56
2021/11/28 07:33:36;;;;;;;1.98;1.77;;;20.60;32.00;;;;;;5024401;28;20041;-51
2021/11/28 07:36:31;;;;;;;2.00;1.80;;;20.60;32.00;;;;;;4997383;28;20030;-48
2021/11/28 07:38:58;;;;;;;2.00;1.83;;;20.60;32.10;;;;;;5029438;28;20026;-55
2021/11/28 07:41:24;;;;;;;2.50;2.00;;;20.60;32.00;;;;;;5024711;28;20026;-48
2021/11/28 07:43:56;;;;;;;3.40;2.60;;;20.60;32.00;;;;;;5018848;28;20036;-53
2021/11/28 07:47:01;;;;;;;1.98;1.77;;;20.60;32.00;;;;;;4994278;28;20042;-51
2021/11/28 07:49:33;;;;;;;2.08;1.88;;;20.60;32.10;;;;;;4971360;28;20042;-50
2021/11/28 07:52:09;;;;;;;2.70;2.40;;;20.60;32.10;;;;;;4997700;28;20457;-55
2021/11/28 07:54:35;;;;;;;2.47;1.92;;;20.60;32.20;;;;;;5022604;28;20060;-49
2021/11/28 07:57:03;;;;;;;2.35;1.92;;;20.60;32.20;;;;;;5019799;28;20026;-51
2021/11/28 07:59:47;;;;;;;2.60;1.85;;;20.60;32.20;;;;;;5019312;28;20053;-54
2021/11/28 08:02:19;;;;;;;2.47;1.60;;;20.70;32.20;;;;;;5015641;28;20033;-52
2021/11/28 08:04:46;;;;;;;3.35;1.70;;;20.80;32.20;;;;;;5021772;28;20369;-54
2021/11/28 08:07:30;;;;;;;4.40;1.60;;;20.90;32.10;;;;;;5031810;28;20098;-58
2021/11/28 08:10:16;;;;;;;1.50;1.40;;;21.00;32.20;;;;;;5022855;28;20396;-55
2021/11/28 08:12:42;;;;;;;1.45;1.05;;;21.10;32.20;;;;;;5015064;28;20072;-53
2021/11/28 08:15:12;;;;;;;2.20;1.10;;;21.20;32.20;;;;;;5015347;28;20054;-54
2021/11/28 08:17:38;;;;;;;1.23;1.13;;;21.40;32.10;;;;;;5031791;28;20508;-56
2021/11/28 08:20:09;;;;;;;2.08;1.17;;;21.50;32.00;;;;;;5033593;28;20116;-55
2021/11/28 08:22:36;;;;;;;2.35;1.30;;;21.60;31.80;;;;;;5032904;28;20330;-53
2021/11/28 08:25:02;;;;;;;1.73;1.20;;;21.70;31.70;;;;;;5034732;28;20452;-59
2021/11/28 08:27:28;;;;;;;1.48;1.00;;;21.80;31.60;;;;;;5029274;28;20042;-53
2021/11/28 08:29:55;;;;;;;2.15;1.20;;;21.90;31.50;;;;;;5031073;28;20029;-56
2021/11/28 08:32:42;;;;;;;1.92;1.15;;;22.00;32.10;;;;;;5014714;28;20357;-51
2021/11/28 08:35:29;;;;;;;1.70;1.17;;;22.10;31.30;;;;;;5033909;28;20060;-53
2021/11/28 08:37:56;;;;;;;1.13;0.98;;;22.20;31.20;;;;;;5034395;28;20059;-55
2021/11/28 08:40:22;;;;;;;1.70;1.10;;;22.30;31.20;;;;;;5023240;28;20033;-55
2021/11/28 08:42:47;;;;;;;2.20;1.30;;;22.40;31.10;;;;;;5025258;28;20026;-56
2021/11/28 08:45:14;;;;;;;1.40;1.05;;;22.50;31.00;;;;;;5025673;28;20172;-53
2021/11/28 08:47:41;;;;;;;2.13;1.10;;;22.60;30.80;;;;;;5013501;28;20411;-51
2021/11/28 08:50:10;;;;;;;1.50;1.20;;;22.60;30.70;;;;;;5015545;28;20080;-51
2021/11/28 08:52:36;;;;;;;1.60;1.30;;;22.70;30.60;;;;;;5012971;28;20049;-53
2021/11/28 08:55:05;;;;;;;1.52;1.25;;;22.80;30.50;;;;;;5032025;28;20033;-54
2021/11/28 08:57:30;;;;;;;2.10;1.10;;;22.90;30.50;;;;;;5034214;28;20030;-49
2021/11/28 08:59:56;;;;;;;1.77;1.27;;;22.90;30.40;;;;;;5032261;28;20388;-56
2021/11/28 09:02:22;;;;;;;1.55;1.30;;;23.00;30.30;;;;;;5034332;28;20033;-50
2021/11/28 09:04:49;;;;;;;1.45;1.35;;;23.10;30.20;;;;;;5029677;28;20061;-54
2021/11/28 09:07:18;;;;;;;2.45;1.25;;;23.10;30.20;;;;;;5022847;28;20034;-53
2021/11/28 09:09:44;;;;;;;1.77;1.30;;;23.20;30.10;;;;;;5031193;28;20049;-54
2021/11/28 09:12:10;;;;;;;1.67;1.27;;;23.20;30.00;;;;;;5016518;28;20042;-57
2021/11/28 09:14:36;;;;;;;1.20;1.10;;;23.20;30.00;;;;;;5029817;28;20045;-56
2021/11/28 09:17:02;;;;;;;1.25;1.13;;;23.30;30.00;;;;;;5033370;28;20043;-55
2021/11/28 09:21:59;;;;;;;4.15;1.13;;;23.40;29.90;;;;;;5013160;28;20422;-59
2021/11/28 09:24:37;;;;;;;1.15;0.90;;;23.40;30.40;;;;;;5022979;28;20073;-58
2021/11/28 09:27:12;;;;;;;2.78;1.27;;;23.50;29.90;;;;;;5032807;28;20037;-58
2021/11/28 09:29:41;;;;;;;2.25;1.40;;;23.50;30.00;;;;;;5023855;28;20029;-55
2021/11/28 09:32:08;;;;;;;1.30;1.20;;;23.50;30.00;;;;;;5024002;28;20136;-53
2021/11/28 09:34:34;;;;;;;1.08;0.90;;;23.60;30.00;;;;;;5026231;28;20038;-53
2021/11/28 09:37:00;;;;;;;2.20;1.40;;;23.60;30.00;;;;;;5031671;28;20374;-52
2021/11/28 09:39:28;;;;;;;2.55;1.77;;;23.60;30.00;;;;;;5028235;28;20030;-56
2021/11/28 09:42:10;;;;;;;1.58;1.40;;;23.60;29.90;;;;;;5018658;28;20109;-57
2021/11/28 09:44:41;;;;;;;1.65;1.30;;;23.50;29.80;;;;;;5032747;28;20044;-52
2021/11/28 09:47:10;;;;;;;1.58;1.30;;;23.50;29.90;;;;;;5035686;28;20436;-52
2021/11/28 09:49:37;;;;;;;1.50;1.08;;;23.50;29.90;;;;;;5025179;28;20033;-54
2021/11/28 09:52:08;;;;;;;1.55;1.35;;;23.50;29.90;;;;;;5032978;28;20045;-53
2021/11/28 09:54:40;;;;;;;1.25;1.10;;;23.50;29.80;;;;;;5037002;28;20041;-50
2021/11/28 09:57:09;;;;;;;1.38;1.02;;;23.50;29.80;;;;;;5036338;28;20037;-55
2021/11/28 09:59:35;;;;;;;1.30;1.20;;;23.50;29.80;;;;;;5024695;28;20137;-53
2021/11/28 10:02:01;;;;;;;1.95;1.40;;;23.50;29.80;;;;;;5022123;28;20112;-54
2021/11/28 10:04:27;;;;;;;1.42;1.30;;;23.50;29.80;;;;;;5030287;28;20441;-48
2021/11/28 10:06:55;;;;;;;1.25;1.15;;;23.50;29.80;;;;;;5023243;28;20032;-54
2021/11/28 10:09:21;;;;;;;1.63;1.30;;;23.50;29.80;;;;;;5032246;28;20052;-50
2021/11/28 10:12:08;;;;;;;1.67;1.17;;;23.50;29.80;;;;;;5030786;28;20437;-53
2021/11/28 10:14:34;;;;;;;6.07;1.40;;;23.50;29.80;;;;;;5032914;28;20041;-52
2021/11/28 10:16:59;;;;;;;2.30;1.65;;;23.50;29.90;;;;;;5033537;28;20575;-54
2021/11/28 10:19:25;;;;;;;1.27;1.17;;;23.50;29.90;;;;;;5037533;28;20061;-49
2021/11/28 10:21:52;;;;;;;2.05;1.80;;;23.50;29.90;;;;;;5029774;28;20120;-52
2021/11/28 10:24:19;;;;;;;1.88;1.70;;;23.40;29.90;;;;;;5026413;28;20033;-56
2021/11/28 10:27:08;;;;;;;3.13;1.88;;;23.40;29.90;;;;;;5030217;28;20357;-52
2021/11/28 10:29:40;;;;;;;2.47;1.90;;;23.40;29.90;;;;;;5035424;28;20056;-52
2021/11/28 10:32:09;;;;;;;2.42;1.48;;;23.30;29.90;;;;;;5034749;28;20025;-49
2021/11/28 10:34:44;;;;;;;3.17;2.22;;;23.30;30.00;;;;;;5020855;28;20372;-50
2021/11/28 10:37:23;;;;;;;2.55;2.17;;;23.30;30.00;;;;;;5032438;28;20120;-52
2021/11/28 10:39:59;;;;;;;3.03;2.30;;;23.30;30.00;;;;;;5019567;28;20041;-54
2021/11/28 10:42:32;;;;;;;3.75;3.15;;;23.30;30.00;;;;;;5029352;28;20029;-55
2021/11/28 10:45:13;;;;;;;3.42;2.70;;;23.20;30.10;;;;;;5018040;28;20026;-44
2021/11/28 10:47:42;;;;;;;3.17;2.60;;;23.20;30.20;;;;;;5017591;28;20109;-45
2021/11/28 10:50:17;;;;;;;5.70;3.17;;;23.20;30.30;;;;;;5021213;28;20112;-56
2021/11/28 10:52:46;;;;;;;3.47;3.15;;;23.20;30.40;;;;;;5018441;28;20054;-52
2021/11/28 10:55:16;;;;;;;3.50;2.65;;;23.10;30.40;;;;;;5021231;28;20119;-50
2021/11/28 10:57:42;;;;;;;4.63;3.60;;;23.20;30.40;;;;;;5033984;28;20121;-51
2021/11/28 11:00:10;;;;;;;4.45;3.58;;;23.10;30.40;;;;;;5021076;28;20037;-51
2021/11/28 11:02:38;;;;;;;4.60;3.60;;;23.10;30.40;;;;;;5032773;28;20041;-54
2021/11/28 11:05:09;;;;;;;4.10;3.63;;;23.10;31.10;;;;;;5020682;28;20133;-55
2021/11/28 11:07:46;;;;;;;5.32;3.50;;;23.10;30.60;;;;;;5016621;28;20092;-49
2021/11/28 11:10:17;;;;;;;4.18;3.53;;;23.10;31.20;;;;;;5019945;28;20026;-55
2021/11/28 11:12:44;;;;;;;4.38;3.70;;;23.10;30.60;;;;;;5024887;28;20037;-48
2021/11/28 11:15:10;;;;;;;4.30;3.35;;;23.10;31.30;;;;;;5018246;28;20042;-48
2021/11/28 11:17:57;;;;;;;3.83;3.30;;;23.10;30.60;;;;;;5023971;28;20038;-50
2021/11/28 11:20:26;;;;;;;4.30;3.10;;;23.10;30.60;;;;;;5036484;28;20440;-51
2021/11/28 11:22:53;;;;;;;4.07;2.85;;;23.10;30.70;;;;;;5026592;28;20133;-54
2021/11/28 11:25:20;;;;;;;3.70;3.10;;;23.00;30.60;;;;;;5016874;28;20033;-50
2021/11/28 11:27:48;;;;;;;4.20;3.00;;;23.10;30.70;;;;;;5017706;28;20030;-54
2021/11/28 11:30:18;;;;;;;3.25;2.78;;;23.00;30.60;;;;;;5029676;28;20030;-54
2021/11/28 11:32:56;;;;;;;2.83;2.47;;;23.00;30.60;;;;;;5021907;28;20369;-51
2021/11/28 11:35:33;;;;;;;3.15;2.72;;;23.00;30.60;;;;;;5017119;28;20124;-52
2021/11/28 11:38:13;;;;;;;4.15;2.40;;;23.00;30.60;;;;;;5017358;28;20132;-54
2021/11/28 11:40:40;;;;;;;3.28;2.55;;;23.00;30.60;;;;;;5022258;28;20030;-49
2021/11/28 11:43:07;;;;;;;2.72;2.10;;;23.00;30.70;;;;;;5019380;28;20053;-52
2021/11/28 11:45:36;;;;;;;2.38;2.10;;;23.00;31.30;;;;;;5028622;28;20087;-50
2021/11/28 11:48:04;;;;;;;3.42;2.20;;;23.00;30.70;;;;;;5023833;28;20033;-51
2021/11/28 11:50:32;;;;;;;2.08;1.88;;;23.00;30.60;;;;;;5015832;28;20044;-54
2021/11/28 11:52:58;;;;;;;2.63;2.00;;;23.00;30.70;;;;;;5016874;28;20084;-51
2021/11/28 11:55:27;;;;;;;2.15;1.83;;;23.00;30.70;;;;;;5020084;28;20487;-48
2021/11/28 11:58:11;;;;;;;2.42;1.95;;;23.00;30.70;;;;;;5025371;28;20029;-53
2021/11/28 12:00:48;;;;;;;2.05;1.65;;;23.00;30.60;;;;;;5033016;28;20103;-54
2021/11/28 12:03:21;;;;;;;2.60;1.90;;;23.00;30.60;;;;;;5022796;28;20041;-53
2021/11/28 12:05:58;;;;;;;2.35;2.03;;;23.00;30.80;;;;;;5017534;28;20076;-53
2021/11/28 12:08:27;;;;;;;2.40;1.85;;;22.90;30.90;;;;;;5028893;28;20448;-51
2021/11/28 12:10:59;;;;;;;2.90;2.03;;;22.90;31.10;;;;;;5030139;28;20448;-56
2021/11/28 12:13:24;;;;;;;3.88;2.05;;;23.00;31.30;;;;;;5023382;28;20057;-51
2021/11/28 12:15:53;;;;;;;2.88;2.33;;;23.00;31.30;;;;;;5015441;28;20066;-54
2021/11/28 12:18:34;;;;;;;3.42;2.28;;;23.00;31.40;;;;;;5016568;28;20033;-51
2021/11/28 12:21:06;;;;;;;2.70;2.40;;;23.00;31.40;;;;;;5015738;28;20044;-50
2021/11/28 12:24:03;;;;;;;3.58;2.90;;;23.00;31.50;;;;;;5026298;28;20459;-53
2021/11/28 12:26:32;;;;;;;3.67;2.70;;;23.00;31.50;;;;;;5027322;28;20095;-53
2021/11/28 12:29:15;;;;;;;3.33;2.60;;;23.00;31.50;;;;;;5030789;28;20495;-54
2021/11/28 12:31:46;;;;;;;3.78;2.67;;;23.00;31.40;;;;;;5024771;28;20065;-52
2021/11/28 12:34:22;;;;;;;3.22;2.38;;;23.00;31.50;;;;;;5025359;28;20033;-55
2021/11/28 12:36:54;;;;;;;3.63;2.70;;;23.00;31.50;;;;;;5020331;28;20083;-47
2021/11/28 12:39:24;;;;;;;3.20;2.55;;;23.00;31.50;;;;;;5019927;28;20088;-54
2021/11/28 12:42:09;;;;;;;3.42;2.70;;;23.00;31.50;;;;;;5022918;28;20029;-50
2021/11/28 12:44:35;;;;;;;3.28;2.83;;;23.00;31.50;;;;;;5027917;28;20477;-52
2021/11/28 12:47:23;;;;;;;3.75;2.95;;;23.00;31.50;;;;;;5034420;28;20045;-49
2021/11/28 12:49:56;;;;;;;3.03;2.50;;;23.00;31.50;;;;;;5033038;28;20021;-55
2021/11/28 12:52:25;;;;;;;2.92;2.40;;;23.00;31.50;;;;;;5021738;28;20112;-50
2021/11/28 12:55:04;;;;;;;3.10;2.63;;;23.00;31.50;;;;;;5018593;28;20048;-50
2021/11/28 12:57:32;;;;;;;3.42;2.78;;;23.00;31.40;;;;;;5023020;28;20463;-56
2021/11/28 13:00:23;;;;;;;2.78;2.47;;;22.90;31.40;;;;;;5020626;28;20045;-51
2021/11/28 13:03:08;;;;;;;3.17;2.33;;;22.90;31.40;;;;;;5016991;28;20092;-51
2021/11/28 13:05:41;;;;;;;5.05;3.30;;;22.90;31.50;;;;;;5024046;28;20045;-52
2021/11/28 13:08:06;;;;;;;9.45;5.85;;;22.90;31.60;;;;;;5018941;28;20083;-52
2021/11/28 13:10:37;;;;;;;12.45;7.25;;;22.90;32.30;;;;;;5022818;28;20439;-52
2021/11/28 13:13:17;;;;;;;18.35;8.13;;;22.80;33.40;;;;;;5024383;28;20361;-54